Ellendale, Delaware
Current Conditions -  °F | °C
As of 6:54 AM on Monday 22 Dec 2014 (Local Time) from KGED Reporting Station
Clear Clear  
Wind Chill: 27°   Ceiling: Unl
Heat Index: 32°   Visibility: 10mi
Dew Point: 27°   Wind: 5mph
Humidity: 82%   Direction: 20°NNE
Pressure: 30.29"   Gusts: NA
Location:  38.81°N, 75.42°W
Report Text: KGED 221154Z AUTO 02004KT 10SM CLR 00/M03 A3029 RMK AO2 SLP256 T00001028 10000 21033 56007
Loading
Personal Weather Stations






























Interactive Weather Map New forecast layout! Learn more

10-Day Weather Forecast

Advertisements
Track Severe Weather on mobile